createdAt,value
2019-02-12T00:00:43.982Z,11.63
2019-02-12T00:03:12.999Z,8.47
2019-02-12T00:05:42.227Z,8.30
2019-02-12T00:08:11.102Z,5.80
2019-02-12T00:10:39.955Z,9.63
2019-02-12T00:13:08.897Z,6.87
2019-02-12T00:15:37.915Z,12.87
2019-02-12T00:18:06.857Z,6.93
2019-02-12T00:20:35.782Z,6.53
2019-02-12T00:23:04.787Z,6.70
2019-02-12T00:25:33.971Z,5.33
2019-02-12T00:28:02.882Z,5.53
2019-02-12T00:30:32.054Z,6.27
2019-02-12T00:33:00.986Z,4.73
2019-02-12T00:35:30.146Z,4.57
2019-02-12T00:37:59.346Z,8.20
2019-02-12T00:40:28.222Z,7.57
2019-02-12T00:42:57.149Z,5.33
2019-02-12T00:45:26.329Z,7.23
2019-02-12T00:47:55.186Z,7.37
2019-02-12T00:50:24.129Z,8.77
2019-02-12T00:52:53.058Z,5.00
2019-02-12T00:55:22.104Z,12.50
2019-02-12T00:57:51.097Z,5.67
2019-02-12T01:00:20.043Z,5.03
2019-02-12T01:02:48.973Z,6.57
2019-02-12T01:05:18.009Z,4.90
2019-02-12T01:07:47.009Z,9.20
2019-02-12T01:10:16.039Z,10.00
2019-02-12T01:12:44.966Z,7.27
2019-02-12T01:15:13.991Z,6.73
2019-02-12T01:17:43.342Z,4.63
2019-02-12T01:20:13.222Z,4.53
2019-02-12T01:22:42.233Z,11.40
2019-02-12T01:25:11.651Z,3.80
2019-02-12T01:27:40.597Z,7.53
2019-02-12T01:30:12.533Z,5.27
2019-02-12T01:32:41.710Z,4.70
2019-02-12T01:35:10.666Z,5.73
2019-02-12T01:37:39.610Z,10.90
2019-02-12T01:40:11.131Z,4.80
2019-02-12T01:42:40.063Z,7.33
2019-02-12T01:45:11.033Z,6.17
2019-02-12T01:47:40.170Z,7.97
2019-02-12T01:50:11.318Z,5.70
2019-02-12T01:52:40.245Z,6.47
2019-02-12T01:55:09.274Z,5.10
2019-02-12T01:57:38.199Z,4.77
2019-02-12T02:00:08.917Z,5.63
2019-02-12T02:02:37.842Z,4.27
2019-02-12T02:05:08.030Z,5.93
2019-02-12T02:07:37.045Z,4.10
2019-02-12T02:10:07.174Z,3.97
2019-02-12T02:12:36.106Z,4.27
2019-02-12T02:15:06.116Z,5.07
2019-02-12T02:17:35.471Z,10.00
2019-02-12T02:20:05.062Z,4.20
2019-02-12T02:22:33.924Z,4.90
2019-02-12T02:25:02.865Z,7.23
2019-02-12T02:27:31.722Z,6.03
2019-02-12T02:30:00.947Z,6.60
2019-02-12T02:32:29.793Z,6.20
2019-02-12T02:34:58.670Z,5.80
2019-02-12T02:37:27.609Z,7.23
2019-02-12T02:39:56.819Z,7.93
2019-02-12T02:42:25.684Z,8.63
2019-02-12T02:44:54.558Z,6.43
2019-02-12T02:47:23.422Z,10.33
2019-02-12T02:49:52.686Z,10.73
2019-02-12T02:52:21.890Z,14.20
2019-02-12T02:54:50.758Z,13.63
2019-02-12T02:57:19.912Z,10.27
2019-02-12T02:59:48.842Z,9.90
2019-02-12T03:02:17.723Z,9.20
2019-02-12T03:04:46.653Z,12.07
2019-02-12T03:07:16.267Z,10.60
2019-02-12T03:09:45.459Z,10.60
2019-02-12T03:12:14.418Z,8.07
2019-02-12T03:14:43.546Z,9.80
2019-02-12T03:17:12.751Z,9.90
2019-02-12T03:19:41.949Z,10.90
2019-02-12T03:22:10.834Z,9.57
2019-02-12T03:24:39.690Z,9.40
2019-02-12T03:27:08.639Z,10.43
2019-02-12T03:29:37.567Z,9.07
2019-02-12T03:32:06.810Z,8.20
2019-02-12T03:34:35.818Z,8.60
2019-02-12T03:37:04.770Z,11.13
2019-02-12T03:39:33.639Z,9.80
2019-02-12T03:42:02.881Z,9.43
2019-02-12T03:44:31.777Z,14.03
2019-02-12T03:47:00.724Z,9.90
2019-02-12T03:49:29.588Z,15.93
2019-02-12T03:51:58.454Z,12.30
2019-02-12T03:54:27.390Z,9.27
2019-02-12T03:56:56.405Z,9.00
2019-02-12T03:59:25.428Z,10.30
2019-02-12T04:01:54.510Z,13.60
2019-02-12T04:04:23.726Z,9.87
2019-02-12T04:06:52.612Z,9.87
2019-02-12T04:09:21.476Z,16.33
2019-02-12T04:11:50.420Z,9.53
2019-02-12T04:14:19.341Z,11.10
2019-02-12T04:16:48.291Z,8.67
2019-02-12T04:19:17.302Z,9.90
2019-02-12T04:21:46.182Z,11.53
2019-02-12T04:24:15.122Z,11.40
2019-02-12T04:26:44.364Z,13.70
2019-02-12T04:29:13.560Z,11.63
2019-02-12T04:31:42.856Z,10.73
2019-02-12T04:34:11.878Z,12.53
2019-02-12T04:36:40.758Z,15.23
2019-02-12T04:39:09.706Z,12.90
2019-02-12T04:41:38.578Z,15.60
2019-02-12T04:44:07.723Z,8.57
2019-02-12T04:46:36.747Z,12.23
2019-02-12T04:49:05.610Z,10.90
2019-02-12T04:51:34.574Z,10.60
2019-02-12T04:54:03.577Z,10.07
2019-02-12T04:56:32.518Z,10.73
2019-02-12T04:59:01.394Z,8.27
2019-02-12T05:01:30.254Z,10.90
2019-02-12T05:03:59.413Z,9.83
2019-02-12T05:06:28.364Z,11.10
2019-02-12T05:09:35.634Z,10.17
2019-02-12T05:12:06.369Z,11.90
2019-02-12T05:14:35.234Z,11.97
2019-02-12T05:17:04.582Z,9.87
2019-02-12T05:19:33.587Z,12.13
2019-02-12T05:22:02.547Z,10.73
2019-02-12T05:24:31.477Z,8.37
2019-02-12T05:27:00.338Z,8.53
2019-02-12T05:29:29.296Z,10.73
2019-02-12T05:31:58.630Z,9.70
2019-02-12T05:34:27.501Z,13.00
2019-02-12T05:36:56.371Z,9.47
2019-02-12T05:39:25.335Z,10.70
2019-02-12T05:41:54.343Z,10.57
2019-02-12T05:44:23.221Z,9.77
2019-02-12T05:46:52.099Z,12.33
2019-02-12T05:49:21.387Z,9.47
2019-02-12T05:51:50.326Z,10.50
2019-02-12T05:54:19.343Z,12.37
2019-02-12T05:56:48.282Z,9.03
2019-02-12T05:59:17.236Z,8.20
2019-02-12T06:01:46.171Z,10.50
2019-02-12T06:04:15.771Z,8.53
2019-02-12T06:06:44.722Z,14.03
2019-02-12T06:09:13.967Z,10.30
2019-02-12T06:11:42.970Z,12.67
2019-02-12T06:14:12.272Z,14.03
2019-02-12T06:16:41.215Z,15.10
2019-02-12T06:19:11.569Z,14.50
2019-02-12T06:21:40.962Z,10.23
2019-02-12T06:24:10.002Z,21.20
2019-02-12T06:26:39.211Z,14.13
2019-02-12T06:29:08.187Z,10.87
2019-02-12T06:31:37.055Z,13.77
2019-02-12T06:34:06.057Z,18.87
2019-02-12T06:36:35.007Z,12.60
2019-02-12T06:39:05.469Z,14.57
2019-02-12T06:41:34.426Z,20.87
2019-02-12T06:44:03.403Z,15.60
2019-02-12T06:46:32.847Z,13.23
2019-02-12T06:49:02.000Z,15.10
2019-02-12T06:51:30.943Z,18.27
2019-02-12T06:54:00.083Z,22.07
2019-02-12T06:56:29.390Z,22.33
2019-02-12T06:58:58.355Z,18.13
2019-02-12T07:01:27.301Z,24.33
2019-02-12T07:04:01.938Z,28.23
2019-02-12T07:07:26.603Z,25.20
2019-02-12T07:10:02.622Z,23.27
2019-02-12T07:13:06.918Z,26.13
2019-02-12T07:15:49.253Z,24.70
2019-02-12T07:18:58.074Z,23.67
2019-02-12T07:21:59.306Z,26.27
2019-02-12T07:24:53.605Z,23.33
2019-02-12T07:28:07.830Z,26.10
2019-02-12T07:30:58.674Z,20.47
2019-02-12T07:33:59.917Z,19.97
2019-02-12T07:37:09.723Z,17.77
2019-02-12T07:40:22.990Z,27.57
2019-02-12T07:43:35.314Z,19.93
2019-02-12T07:46:40.394Z,25.37
2019-02-12T07:49:41.734Z,18.00
2019-02-12T07:52:55.069Z,21.60
2019-02-12T07:55:48.366Z,22.10
2019-02-12T07:58:58.558Z,22.07
2019-02-12T08:02:17.781Z,16.73
2019-02-12T08:05:25.090Z,20.23
2019-02-12T08:08:29.638Z,17.60
2019-02-12T08:11:14.878Z,18.33
2019-02-12T08:14:43.322Z,19.80
2019-02-12T08:17:41.270Z,17.37
2019-02-12T08:20:51.153Z,21.30
2019-02-12T08:24:07.320Z,22.80
2019-02-12T08:27:07.338Z,19.80
2019-02-12T08:30:17.819Z,20.87
2019-02-12T08:33:20.264Z,23.27
2019-02-12T08:36:00.121Z,24.90
2019-02-12T08:38:42.538Z,22.43
2019-02-12T08:41:28.134Z,18.37
2019-02-12T08:44:45.357Z,18.90
2019-02-12T08:48:07.892Z,24.70
2019-02-12T08:50:49.305Z,23.33
2019-02-12T08:53:56.674Z,20.00
2019-02-12T08:57:25.182Z,20.00
2019-02-12T09:00:22.130Z,21.83
2019-02-12T09:03:38.370Z,19.00
2019-02-12T09:06:38.232Z,19.30
2019-02-12T09:10:00.777Z,15.90
2019-02-12T09:12:45.863Z,19.80
2019-02-12T09:16:23.622Z,18.90
2019-02-12T09:19:25.115Z,13.60
2019-02-12T09:22:50.833Z,14.67
2019-02-12T09:25:39.831Z,12.23
2019-02-12T09:28:24.518Z,12.00
2019-02-12T09:31:44.087Z,15.90
2019-02-12T09:35:02.830Z,12.63
2019-02-12T09:38:00.683Z,10.27
2019-02-12T09:41:08.007Z,10.60
2019-02-12T09:44:05.810Z,12.40
2019-02-12T09:47:07.312Z,11.27
2019-02-12T09:49:59.202Z,11.00
2019-02-12T09:53:05.783Z,11.60
2019-02-12T09:55:51.176Z,11.37
2019-02-12T09:58:49.675Z,14.17
2019-02-12T10:02:03.598Z,15.73
2019-02-12T10:04:51.211Z,13.00
2019-02-12T10:07:55.682Z,14.07
2019-02-12T10:11:04.341Z,15.00
2019-02-12T10:14:08.618Z,15.40
2019-02-12T10:17:09.421Z,16.07
2019-02-12T10:19:52.647Z,13.90
2019-02-12T10:22:47.674Z,19.00
2019-02-12T10:25:31.012Z,18.60
2019-02-12T10:28:48.937Z,18.53
2019-02-12T10:31:29.144Z,21.30
2019-02-12T10:33:58.199Z,26.67
2019-02-12T10:36:27.212Z,19.60
2019-02-12T10:38:56.586Z,18.87
2019-02-12T10:41:25.458Z,17.70
2019-02-12T10:43:54.493Z,16.50
2019-02-12T10:46:23.715Z,17.97
2019-02-12T10:48:52.850Z,18.33
2019-02-12T10:51:21.901Z,19.73
2019-02-12T10:53:50.869Z,20.93
2019-02-12T10:56:19.826Z,16.00
2019-02-12T10:58:48.870Z,15.20
2019-02-12T11:01:17.894Z,16.13
2019-02-12T11:03:47.302Z,18.17
2019-02-12T11:06:16.272Z,16.07
2019-02-12T11:08:45.221Z,19.23
2019-02-12T11:11:14.167Z,22.03
2019-02-12T11:13:43.189Z,16.17
2019-02-12T11:16:12.239Z,22.33
2019-02-12T11:18:41.282Z,16.30
2019-02-12T11:21:12.079Z,16.63
2019-02-12T11:23:41.668Z,18.47
2019-02-12T11:26:12.890Z,13.70
2019-02-12T11:28:41.926Z,16.17
2019-02-12T11:31:10.943Z,17.20
2019-02-12T11:33:39.970Z,15.00
2019-02-12T11:36:08.981Z,15.70
2019-02-12T11:38:37.945Z,11.73
2019-02-12T11:41:06.887Z,13.27
2019-02-12T11:43:35.930Z,14.70
2019-02-12T11:46:05.266Z,12.33
2019-02-12T11:48:34.443Z,11.93
2019-02-12T11:51:03.385Z,16.27
2019-02-12T11:53:32.586Z,14.83
2019-02-12T11:56:01.846Z,14.43
2019-02-12T11:58:30.803Z,15.00
2019-02-12T12:01:01.841Z,13.23
2019-02-12T12:03:31.171Z,13.17
2019-02-12T12:06:00.140Z,12.57
2019-02-12T12:08:29.097Z,17.13
2019-02-12T12:10:58.736Z,11.97
2019-02-12T12:13:28.522Z,14.67
2019-02-12T12:15:57.539Z,13.50
2019-02-12T12:18:26.490Z,15.60
2019-02-12T12:20:55.533Z,14.63
2019-02-12T12:23:24.482Z,18.57
2019-02-12T12:25:54.537Z,16.30
2019-02-12T12:28:28.464Z,15.63
2019-02-12T12:30:57.474Z,13.30
2019-02-12T12:33:26.334Z,17.63
2019-02-12T12:35:55.300Z,16.23
2019-02-12T12:38:24.234Z,13.20
2019-02-12T12:40:53.265Z,17.40
2019-02-12T12:43:22.258Z,16.07
2019-02-12T12:45:51.226Z,12.93
2019-02-12T12:48:20.106Z,13.63
2019-02-12T12:50:49.134Z,15.40
2019-02-12T12:53:18.065Z,12.07
2019-02-12T12:55:47.021Z,14.73
2019-02-12T12:58:15.893Z,18.73
2019-02-12T13:00:44.852Z,19.03
2019-02-12T13:03:13.870Z,20.03
2019-02-12T13:05:42.769Z,16.23
2019-02-12T13:08:11.701Z,16.10
2019-02-12T13:10:40.954Z,11.50
2019-02-12T13:13:09.965Z,11.47
2019-02-12T13:15:38.847Z,14.93
2019-02-12T13:18:08.142Z,11.67
2019-02-12T13:20:37.091Z,9.03
2019-02-12T13:23:06.193Z,11.13
2019-02-12T13:25:35.070Z,11.70
2019-02-12T13:28:04.427Z,12.87
2019-02-12T13:30:33.383Z,11.67
2019-02-12T13:33:02.423Z,13.40
2019-02-12T13:35:31.658Z,13.20
2019-02-12T13:38:00.802Z,8.57
2019-02-12T13:40:29.827Z,11.77
2019-02-12T13:42:59.118Z,12.70
2019-02-12T13:45:28.070Z,11.63
2019-02-12T13:47:56.935Z,10.90
2019-02-12T13:50:25.961Z,8.80
2019-02-12T13:52:54.962Z,7.40
2019-02-12T13:55:24.270Z,14.37
2019-02-12T13:57:53.878Z,6.93
2019-02-12T14:00:22.837Z,6.40
2019-02-12T14:02:52.165Z,7.27
2019-02-12T14:05:21.227Z,8.47
2019-02-12T14:07:50.593Z,8.50
2019-02-12T14:10:19.866Z,9.23
2019-02-12T14:12:48.811Z,6.50
2019-02-12T14:15:17.969Z,8.60
2019-02-12T14:17:46.930Z,7.73
2019-02-12T14:20:15.944Z,8.00
2019-02-12T14:22:44.818Z,10.27
2019-02-12T14:25:13.855Z,9.43
2019-02-12T14:27:43.226Z,11.27
2019-02-12T14:30:13.733Z,7.33
2019-02-12T14:32:43.185Z,8.07
2019-02-12T14:35:12.646Z,9.97
2019-02-12T14:37:41.649Z,10.47
2019-02-12T14:40:11.035Z,7.40
2019-02-12T14:42:40.679Z,10.60
2019-02-12T14:45:11.460Z,8.00
2019-02-12T14:47:40.497Z,10.23
2019-02-12T14:50:10.705Z,8.50
2019-02-12T14:52:39.660Z,6.50
2019-02-12T14:55:08.677Z,6.40
2019-02-12T14:57:37.663Z,6.70
2019-02-12T15:00:08.958Z,9.10
2019-02-12T15:02:38.903Z,8.27
2019-02-12T15:05:07.971Z,7.00
2019-02-12T15:07:37.911Z,9.07
2019-02-12T15:10:08.206Z,9.27
2019-02-12T15:12:37.502Z,7.50
2019-02-12T15:15:06.960Z,7.57
2019-02-12T15:17:36.240Z,12.17
2019-02-12T15:20:07.151Z,11.57
2019-02-12T15:22:36.481Z,7.53
2019-02-12T15:25:05.926Z,22.90
2019-02-12T15:27:35.159Z,18.30
2019-02-12T15:30:05.072Z,8.00
2019-02-12T15:32:34.094Z,9.60
2019-02-12T15:35:03.041Z,8.13
2019-02-12T15:37:33.481Z,9.23
2019-02-12T15:40:02.977Z,10.87
2019-02-12T15:42:33.225Z,8.37
2019-02-12T15:45:02.098Z,9.90
2019-02-12T15:47:31.053Z,10.53
2019-02-12T15:50:00.299Z,12.63
2019-02-12T15:52:29.489Z,9.60
2019-02-12T15:54:58.405Z,12.20
2019-02-12T15:57:27.692Z,13.43
2019-02-12T15:59:56.638Z,7.83
2019-02-12T16:02:25.874Z,11.07
2019-02-12T16:04:54.821Z,10.10
2019-02-12T16:07:24.424Z,8.77
2019-02-12T16:09:54.881Z,9.00
2019-02-12T16:12:24.778Z,10.30
2019-02-12T16:14:54.945Z,11.67
2019-02-12T16:17:24.243Z,10.47
2019-02-12T16:19:53.198Z,9.93
2019-02-12T16:22:22.638Z,9.10
2019-02-12T16:24:51.518Z,9.50
2019-02-12T16:27:20.529Z,11.13
2019-02-12T16:29:49.477Z,10.27
2019-02-12T16:32:18.342Z,8.53
2019-02-12T16:34:47.289Z,7.50
2019-02-12T16:37:16.226Z,10.97
2019-02-12T16:39:45.103Z,8.87
2019-02-12T16:42:13.955Z,9.80
2019-02-12T16:44:42.834Z,7.63
2019-02-12T16:47:11.770Z,10.40
2019-02-12T16:49:40.642Z,16.17
2019-02-12T16:52:09.579Z,10.03
2019-02-12T16:54:38.511Z,13.33
2019-02-12T16:57:07.465Z,7.70
2019-02-12T16:59:36.334Z,9.53
2019-02-12T17:02:05.346Z,7.90
2019-02-12T17:04:34.227Z,10.10
2019-02-12T17:07:03.520Z,10.80
2019-02-12T17:09:32.502Z,13.00
2019-02-12T17:12:01.790Z,9.77
2019-02-12T17:14:30.731Z,9.30
2019-02-12T17:16:59.987Z,11.93
2019-02-12T17:19:29.199Z,11.83
2019-02-12T17:21:58.481Z,8.90
2019-02-12T17:24:28.011Z,10.57
2019-02-12T17:26:57.016Z,12.33
2019-02-12T17:29:25.973Z,13.07
2019-02-12T17:31:55.024Z,9.03
2019-02-12T17:34:24.374Z,12.20
2019-02-12T17:36:53.685Z,12.80
2019-02-12T17:39:22.966Z,12.33
2019-02-12T17:41:52.171Z,17.90
2019-02-12T17:44:21.674Z,14.63
2019-02-12T17:46:50.980Z,14.43
2019-02-12T17:49:19.862Z,15.57
2019-02-12T17:51:49.889Z,12.63
2019-02-12T17:54:18.852Z,11.60
2019-02-12T17:56:48.276Z,8.30
2019-02-12T17:59:17.254Z,10.73
2019-02-12T18:01:46.278Z,7.77
2019-02-12T18:04:15.150Z,8.50
2019-02-12T18:06:44.464Z,10.70
2019-02-12T18:09:13.760Z,6.03
2019-02-12T18:11:42.690Z,8.20
2019-02-12T18:14:11.557Z,9.43
2019-02-12T18:16:41.143Z,8.07
2019-02-12T18:19:10.538Z,6.33
2019-02-12T18:21:39.402Z,8.60
2019-02-12T18:24:10.982Z,9.40
2019-02-12T18:26:40.197Z,7.03
2019-02-12T18:29:09.389Z,7.90
2019-02-12T18:31:38.257Z,9.10
2019-02-12T18:34:07.488Z,8.73
2019-02-12T18:36:36.350Z,8.00
2019-02-12T18:39:06.552Z,7.40
2019-02-12T18:41:35.562Z,6.10
2019-02-12T18:44:04.889Z,9.73
2019-02-12T18:46:33.771Z,8.13
2019-02-12T18:49:03.081Z,9.30
2019-02-12T18:51:32.810Z,9.20
2019-02-12T18:54:01.685Z,14.73
2019-02-12T18:56:30.633Z,17.00
2019-02-12T18:58:59.521Z,15.03
2019-02-12T19:01:28.466Z,15.13
2019-02-12T19:03:57.662Z,14.43
2019-02-12T19:06:27.064Z,13.87
2019-02-12T19:08:56.259Z,18.57
2019-02-12T19:11:25.454Z,17.67
2019-02-12T19:13:54.676Z,17.37
2019-02-12T19:16:23.610Z,15.27
2019-02-12T19:18:52.799Z,13.27
2019-02-12T19:21:22.087Z,11.43
2019-02-12T19:23:51.354Z,11.80
2019-02-12T19:26:20.346Z,15.77
2019-02-12T19:28:49.666Z,18.47
2019-02-12T19:31:18.550Z,21.93
2019-02-12T19:33:47.430Z,11.57
2019-02-12T19:36:16.717Z,17.90
2019-02-12T19:38:45.577Z,14.87
2019-02-12T19:41:14.458Z,16.63
2019-02-12T19:43:44.009Z,9.97
2019-02-12T19:46:12.883Z,11.53
2019-02-12T19:48:42.302Z,14.53
2019-02-12T19:51:11.261Z,15.77
2019-02-12T19:53:40.204Z,14.03
2019-02-12T19:56:09.215Z,16.63
2019-02-12T19:58:38.221Z,12.97
2019-02-12T20:01:07.241Z,10.10
2019-02-12T20:03:36.189Z,10.97
2019-02-12T20:06:05.246Z,10.20
2019-02-12T20:08:34.179Z,12.80
2019-02-12T20:11:03.148Z,13.23
2019-02-12T20:13:32.345Z,7.90
2019-02-12T20:16:01.290Z,7.60
2019-02-12T20:18:30.166Z,11.50
2019-02-12T20:20:59.834Z,8.33
2019-02-12T20:23:29.034Z,13.13
2019-02-12T20:25:57.990Z,15.43
2019-02-12T20:28:27.018Z,13.00
2019-02-12T20:30:56.223Z,15.50
2019-02-12T20:33:25.170Z,14.30
2019-02-12T20:35:54.197Z,14.37
2019-02-12T20:38:23.610Z,16.03
2019-02-12T20:40:52.477Z,10.67
2019-02-12T20:43:21.401Z,9.97
2019-02-12T20:45:50.598Z,15.10
2019-02-12T20:48:19.786Z,15.13
2019-02-12T20:50:48.745Z,13.30
2019-02-12T20:53:17.915Z,13.70
2019-02-12T20:55:47.179Z,20.50
2019-02-12T20:58:16.479Z,14.50
2019-02-12T21:00:45.783Z,15.33
2019-02-12T21:03:14.646Z,17.63
2019-02-12T21:05:43.634Z,12.03
2019-02-12T21:08:12.567Z,14.30
2019-02-12T21:10:41.766Z,15.70
2019-02-12T21:13:11.050Z,10.97
2019-02-12T21:15:39.917Z,13.00
2019-02-12T21:18:08.790Z,18.63
2019-02-12T21:20:37.733Z,11.87
2019-02-12T21:23:07.042Z,18.90
2019-02-12T21:25:35.994Z,16.60
2019-02-12T21:28:05.320Z,18.70
2019-02-12T21:30:34.415Z,18.80
2019-02-12T21:33:03.914Z,14.63
2019-02-12T21:35:32.863Z,17.77
2019-02-12T21:38:02.724Z,15.43
2019-02-12T21:40:31.895Z,14.60
2019-02-12T21:43:01.122Z,12.17
2019-02-12T21:45:30.260Z,12.43
2019-02-12T21:47:59.462Z,11.43
2019-02-12T21:50:28.818Z,12.83
2019-02-12T21:52:58.022Z,10.87
2019-02-12T21:55:26.946Z,12.20
2019-02-12T21:57:56.197Z,11.13
2019-02-12T22:00:25.443Z,7.40
2019-02-12T22:02:55.890Z,14.50
2019-02-12T22:05:24.894Z,10.60
2019-02-12T22:07:54.181Z,9.77
2019-02-12T22:10:23.086Z,8.10
2019-02-12T22:12:52.112Z,7.80
2019-02-12T22:15:21.051Z,10.67
2019-02-12T22:17:50.406Z,9.97
2019-02-12T22:20:19.501Z,6.17
2019-02-12T22:22:48.530Z,10.33
2019-02-12T22:25:17.382Z,6.20
2019-02-12T22:27:46.250Z,8.00
2019-02-12T22:30:19.482Z,7.67
2019-02-12T22:32:48.677Z,5.80
2019-02-12T22:35:17.605Z,10.60
2019-02-12T22:37:46.545Z,5.00
2019-02-12T22:40:15.725Z,6.27
2019-02-12T22:42:44.746Z,5.33
2019-02-12T22:45:15.909Z,6.37
2019-02-12T22:47:45.192Z,6.80
2019-02-12T22:50:14.244Z,7.20
2019-02-12T22:52:43.198Z,6.73
2019-02-12T22:55:12.253Z,8.00
2019-02-12T22:57:48.954Z,7.97
2019-02-12T23:00:51.392Z,4.97
2019-02-12T23:03:20.963Z,7.40
2019-02-12T23:05:50.030Z,8.57
2019-02-12T23:08:19.072Z,8.43
2019-02-12T23:10:48.004Z,5.23
2019-02-12T23:13:17.218Z,14.57
2019-02-12T23:15:46.221Z,7.30
2019-02-12T23:18:15.507Z,7.80
2019-02-12T23:20:44.441Z,7.83
2019-02-12T23:23:13.314Z,8.47
2019-02-12T23:25:42.278Z,7.00
2019-02-12T23:28:11.639Z,10.20
2019-02-12T23:30:40.570Z,9.30
2019-02-12T23:33:09.775Z,12.27
2019-02-12T23:35:38.819Z,8.73
2019-02-12T23:38:08.179Z,9.80
2019-02-12T23:40:37.041Z,11.97
2019-02-12T23:43:06.072Z,11.10
2019-02-12T23:45:34.931Z,11.23
2019-02-12T23:48:04.172Z,6.90
2019-02-12T23:50:33.040Z,7.53
2019-02-12T23:53:01.913Z,7.20
2019-02-12T23:55:30.786Z,9.30
2019-02-12T23:58:05.734Z,7.93
